Aviation Digital Data Service (ADDS)

Output produced by METARs form (2030 UTC 27 February 2017)
found at http://aviationweather.gov/adds/metars/
 
KHKY 271720Z 2718/2818 18005KT P6SM BKN120 
     FM280300 05003KT P6SM BKN035 
     PROB30 2812/2816 6SM -SHRA OVC025